sensor_id;sensor_type;location;lat;lon;timestamp;temperature;humidity
65034;DHT22;51601;51.356;12.458;2023-12-29T00:01:20;8.00;90.20
65034;DHT22;51601;51.356;12.458;2023-12-29T00:05:39;8.00;90.20
65034;DHT22;51601;51.356;12.458;2023-12-29T00:09:58;8.10;90.20
65034;DHT22;51601;51.356;12.458;2023-12-29T00:14:24;8.10;90.10
65034;DHT22;51601;51.356;12.458;2023-12-29T00:18:51;8.10;90.00
65034;DHT22;51601;51.356;12.458;2023-12-29T00:23:12;8.20;89.60
65034;DHT22;51601;51.356;12.458;2023-12-29T00:27:32;8.20;89.30
65034;DHT22;51601;51.356;12.458;2023-12-29T00:31:54;8.30;89.00
65034;DHT22;51601;51.356;12.458;2023-12-29T00:36:15;8.30;88.70
65034;DHT22;51601;51.356;12.458;2023-12-29T00:40:37;8.30;88.70
65034;DHT22;51601;51.356;12.458;2023-12-29T00:44:58;8.30;88.60
65034;DHT22;51601;51.356;12.458;2023-12-29T00:49:17;8.30;88.70
65034;DHT22;51601;51.356;12.458;2023-12-29T00:53:38;8.20;89.00
65034;DHT22;51601;51.356;12.458;2023-12-29T00:57:58;8.20;89.50
65034;DHT22;51601;51.356;12.458;2023-12-29T01:02:18;8.10;89.90
65034;DHT22;51601;51.356;12.458;2023-12-29T01:06:39;8.10;90.20
65034;DHT22;51601;51.356;12.458;2023-12-29T01:11:01;8.10;90.50
65034;DHT22;51601;51.356;12.458;2023-12-29T01:15:23;8.10;90.70
65034;DHT22;51601;51.356;12.458;2023-12-29T01:19:42;8.20;91.00
65034;DHT22;51601;51.356;12.458;2023-12-29T01:24:04;8.20;91.10
65034;DHT22;51601;51.356;12.458;2023-12-29T01:28:28;8.20;91.10
65034;DHT22;51601;51.356;12.458;2023-12-29T01:32:54;8.30;91.00
65034;DHT22;51601;51.356;12.458;2023-12-29T01:37:14;8.30;90.80
65034;DHT22;51601;51.356;12.458;2023-12-29T01:41:38;8.40;90.70
65034;DHT22;51601;51.356;12.458;2023-12-29T01:45:56;8.40;90.50
65034;DHT22;51601;51.356;12.458;2023-12-29T01:50:20;8.50;90.30
65034;DHT22;51601;51.356;12.458;2023-12-29T01:54:39;8.60;90.10
65034;DHT22;51601;51.356;12.458;2023-12-29T01:59:00;8.60;90.00
65034;DHT22;51601;51.356;12.458;2023-12-29T02:03:27;8.60;89.60
65034;DHT22;51601;51.356;12.458;2023-12-29T02:07:51;8.60;89.10
65034;DHT22;51601;51.356;12.458;2023-12-29T02:12:09;8.60;88.60
65034;DHT22;51601;51.356;12.458;2023-12-29T02:16:33;8.60;88.20
65034;DHT22;51601;51.356;12.458;2023-12-29T02:20:55;8.70;87.70
65034;DHT22;51601;51.356;12.458;2023-12-29T02:25:18;8.70;87.50
65034;DHT22;51601;51.356;12.458;2023-12-29T02:29:39;8.70;87.30
65034;DHT22;51601;51.356;12.458;2023-12-29T02:34:00;8.70;87.20
65034;DHT22;51601;51.356;12.458;2023-12-29T02:38:25;8.70;87.00
65034;DHT22;51601;51.356;12.458;2023-12-29T02:42:48;8.70;87.00
65034;DHT22;51601;51.356;12.458;2023-12-29T02:47:08;8.70;86.80
65034;DHT22;51601;51.356;12.458;2023-12-29T02:51:29;8.70;86.60
65034;DHT22;51601;51.356;12.458;2023-12-29T02:55:50;8.80;86.50
65034;DHT22;51601;51.356;12.458;2023-12-29T03:00:10;8.80;86.30
65034;DHT22;51601;51.356;12.458;2023-12-29T03:04:29;8.80;86.40
65034;DHT22;51601;51.356;12.458;2023-12-29T03:08:50;8.70;86.40
65034;DHT22;51601;51.356;12.458;2023-12-29T03:13:14;8.80;86.50
65034;DHT22;51601;51.356;12.458;2023-12-29T03:17:43;8.70;86.40
65034;DHT22;51601;51.356;12.458;2023-12-29T03:22:07;8.80;86.60
65034;DHT22;51601;51.356;12.458;2023-12-29T03:26:31;8.70;86.70
65034;DHT22;51601;51.356;12.458;2023-12-29T03:30:48;8.70;86.60
65034;DHT22;51601;51.356;12.458;2023-12-29T03:35:10;8.80;86.40
65034;DHT22;51601;51.356;12.458;2023-12-29T03:39:39;8.80;86.10
65034;DHT22;51601;51.356;12.458;2023-12-29T03:43:58;8.80;85.90
65034;DHT22;51601;51.356;12.458;2023-12-29T03:48:17;8.80;85.70
65034;DHT22;51601;51.356;12.458;2023-12-29T03:52:38;8.80;85.60
65034;DHT22;51601;51.356;12.458;2023-12-29T03:57:00;8.70;85.60
65034;DHT22;51601;51.356;12.458;2023-12-29T04:01:22;8.70;85.70
65034;DHT22;51601;51.356;12.458;2023-12-29T04:05:43;8.70;86.00
65034;DHT22;51601;51.356;12.458;2023-12-29T04:10:03;8.60;86.20
65034;DHT22;51601;51.356;12.458;2023-12-29T04:14:25;8.50;86.50
65034;DHT22;51601;51.356;12.458;2023-12-29T04:18:44;8.50;86.80
65034;DHT22;51601;51.356;12.458;2023-12-29T04:23:04;8.50;87.20
65034;DHT22;51601;51.356;12.458;2023-12-29T04:27:24;8.50;87.50
65034;DHT22;51601;51.356;12.458;2023-12-29T04:31:44;8.40;87.90
65034;DHT22;51601;51.356;12.458;2023-12-29T04:36:06;8.40;88.10
65034;DHT22;51601;51.356;12.458;2023-12-29T04:40:23;8.40;88.30
65034;DHT22;51601;51.356;12.458;2023-12-29T04:44:46;8.50;88.50
65034;DHT22;51601;51.356;12.458;2023-12-29T04:49:08;8.50;88.50
65034;DHT22;51601;51.356;12.458;2023-12-29T04:53:31;8.50;88.60
65034;DHT22;51601;51.356;12.458;2023-12-29T04:57:51;8.50;88.60
65034;DHT22;51601;51.356;12.458;2023-12-29T05:02:14;8.60;88.60
65034;DHT22;51601;51.356;12.458;2023-12-29T05:06:34;8.50;88.50
65034;DHT22;51601;51.356;12.458;2023-12-29T05:10:57;8.50;88.60
65034;DHT22;51601;51.356;12.458;2023-12-29T05:15:15;8.50;88.80
65034;DHT22;51601;51.356;12.458;2023-12-29T05:19:35;8.50;88.90
65034;DHT22;51601;51.356;12.458;2023-12-29T05:23:54;8.50;89.00
65034;DHT22;51601;51.356;12.458;2023-12-29T05:28:17;8.50;89.10
65034;DHT22;51601;51.356;12.458;2023-12-29T05:32:39;8.40;89.00
65034;DHT22;51601;51.356;12.458;2023-12-29T05:36:59;8.40;89.60
65034;DHT22;51601;51.356;12.458;2023-12-29T05:41:21;8.40;88.90
65034;DHT22;51601;51.356;12.458;2023-12-29T05:45:40;8.40;88.80
65034;DHT22;51601;51.356;12.458;2023-12-29T05:50:01;8.40;88.50
65034;DHT22;51601;51.356;12.458;2023-12-29T05:54:21;8.40;88.10
65034;DHT22;51601;51.356;12.458;2023-12-29T05:58:42;8.40;87.70
65034;DHT22;51601;51.356;12.458;2023-12-29T06:03:03;8.50;87.30
65034;DHT22;51601;51.356;12.458;2023-12-29T06:07:23;8.50;87.00
65034;DHT22;51601;51.356;12.458;2023-12-29T06:11:45;8.50;86.70
65034;DHT22;51601;51.356;12.458;2023-12-29T06:16:17;8.50;86.90
65034;DHT22;51601;51.356;12.458;2023-12-29T06:20:38;8.70;85.70
65034;DHT22;51601;51.356;12.458;2023-12-29T06:25:14;8.70;84.70
65034;DHT22;51601;51.356;12.458;2023-12-29T06:29:35;8.70;83.80
65034;DHT22;51601;51.356;12.458;2023-12-29T06:33:55;8.70;83.10
65034;DHT22;51601;51.356;12.458;2023-12-29T06:38:18;8.70;82.70
65034;DHT22;51601;51.356;12.458;2023-12-29T06:42:36;8.70;82.80
65034;DHT22;51601;51.356;12.458;2023-12-29T06:46:56;8.70;82.70
65034;DHT22;51601;51.356;12.458;2023-12-29T06:51:18;8.70;82.60
65034;DHT22;51601;51.356;12.458;2023-12-29T06:55:40;8.70;82.20
65034;DHT22;51601;51.356;12.458;2023-12-29T06:59:58;8.70;82.10
65034;DHT22;51601;51.356;12.458;2023-12-29T07:04:19;8.80;82.20
65034;DHT22;51601;51.356;12.458;2023-12-29T07:08:39;8.80;81.90
65034;DHT22;51601;51.356;12.458;2023-12-29T07:12:58;9.00;81.50
65034;DHT22;51601;51.356;12.458;2023-12-29T07:17:19;9.10;81.20
65034;DHT22;51601;51.356;12.458;2023-12-29T07:21:39;9.20;80.60
65034;DHT22;51601;51.356;12.458;2023-12-29T07:26:03;9.30;80.20
65034;DHT22;51601;51.356;12.458;2023-12-29T07:30:23;9.40;79.70
65034;DHT22;51601;51.356;12.458;2023-12-29T07:34:44;9.40;79.00
65034;DHT22;51601;51.356;12.458;2023-12-29T07:39:03;9.50;78.40
65034;DHT22;51601;51.356;12.458;2023-12-29T07:43:23;9.60;77.80
65034;DHT22;51601;51.356;12.458;2023-12-29T07:47:41;9.70;77.30
65034;DHT22;51601;51.356;12.458;2023-12-29T07:52:08;9.70;77.10
65034;DHT22;51601;51.356;12.458;2023-12-29T07:56:31;9.60;76.90
65034;DHT22;51601;51.356;12.458;2023-12-29T08:00:55;9.60;77.10
65034;DHT22;51601;51.356;12.458;2023-12-29T08:05:15;9.60;77.30
65034;DHT22;51601;51.356;12.458;2023-12-29T08:09:39;9.60;77.70
65034;DHT22;51601;51.356;12.458;2023-12-29T08:14:10;9.50;77.90
65034;DHT22;51601;51.356;12.458;2023-12-29T08:18:30;9.50;78.10
65034;DHT22;51601;51.356;12.458;2023-12-29T08:22:51;9.50;78.30
65034;DHT22;51601;51.356;12.458;2023-12-29T08:27:12;9.60;78.50
65034;DHT22;51601;51.356;12.458;2023-12-29T08:31:35;9.60;78.60
65034;DHT22;51601;51.356;12.458;2023-12-29T08:36:02;9.70;78.50
65034;DHT22;51601;51.356;12.458;2023-12-29T08:40:22;9.70;78.40
65034;DHT22;51601;51.356;12.458;2023-12-29T08:44:43;9.80;78.40
65034;DHT22;51601;51.356;12.458;2023-12-29T08:49:02;9.80;78.40
65034;DHT22;51601;51.356;12.458;2023-12-29T08:53:24;9.80;78.50
65034;DHT22;51601;51.356;12.458;2023-12-29T08:57:50;9.90;78.80
65034;DHT22;51601;51.356;12.458;2023-12-29T09:02:11;9.90;78.90
65034;DHT22;51601;51.356;12.458;2023-12-29T09:06:34;10.00;78.70
65034;DHT22;51601;51.356;12.458;2023-12-29T09:10:56;10.10;78.60
65034;DHT22;51601;51.356;12.458;2023-12-29T09:15:23;10.20;78.60
65034;DHT22;51601;51.356;12.458;2023-12-29T09:19:42;10.30;78.50
65034;DHT22;51601;51.356;12.458;2023-12-29T09:24:07;10.50;79.00
65034;DHT22;51601;51.356;12.458;2023-12-29T09:28:27;10.60;77.90
65034;DHT22;51601;51.356;12.458;2023-12-29T09:32:45;10.80;77.30
65034;DHT22;51601;51.356;12.458;2023-12-29T09:37:03;10.90;76.40
65034;DHT22;51601;51.356;12.458;2023-12-29T09:46:24;11.10;75.80
65034;DHT22;51601;51.356;12.458;2023-12-29T09:50:50;11.20;75.50
65034;DHT22;51601;51.356;12.458;2023-12-29T09:55:11;11.20;75.10
65034;DHT22;51601;51.356;12.458;2023-12-29T09:59:33;11.20;75.00
65034;DHT22;51601;51.356;12.458;2023-12-29T10:03:54;11.30;75.10
65034;DHT22;51601;51.356;12.458;2023-12-29T10:08:14;11.40;75.10
65034;DHT22;51601;51.356;12.458;2023-12-29T10:12:33;11.40;74.80
65034;DHT22;51601;51.356;12.458;2023-12-29T10:16:56;11.50;74.70
65034;DHT22;51601;51.356;12.458;2023-12-29T10:21:26;11.60;74.50
65034;DHT22;51601;51.356;12.458;2023-12-29T10:25:48;11.70;74.10
65034;DHT22;51601;51.356;12.458;2023-12-29T10:30:12;11.80;73.50
65034;DHT22;51601;51.356;12.458;2023-12-29T10:34:45;11.90;73.60
65034;DHT22;51601;51.356;12.458;2023-12-29T10:39:10;12.00;73.70
65034;DHT22;51601;51.356;12.458;2023-12-29T10:43:27;12.20;73.10
65034;DHT22;51601;51.356;12.458;2023-12-29T10:47:45;12.30;72.20
65034;DHT22;51601;51.356;12.458;2023-12-29T10:52:11;12.30;71.90
65034;DHT22;51601;51.356;12.458;2023-12-29T10:56:34;12.30;71.80
65034;DHT22;51601;51.356;12.458;2023-12-29T11:00:53;12.30;71.80
65034;DHT22;51601;51.356;12.458;2023-12-29T11:05:13;12.30;71.80
65034;DHT22;51601;51.356;12.458;2023-12-29T11:09:46;12.30;71.80
65034;DHT22;51601;51.356;12.458;2023-12-29T11:14:10;12.30;71.30
65034;DHT22;51601;51.356;12.458;2023-12-29T11:18:35;12.20;70.80
65034;DHT22;51601;51.356;12.458;2023-12-29T11:22:56;12.20;71.00
65034;DHT22;51601;51.356;12.458;2023-12-29T11:27:14;12.10;71.20
65034;DHT22;51601;51.356;12.458;2023-12-29T11:31:37;12.20;71.80
65034;DHT22;51601;51.356;12.458;2023-12-29T11:35:59;12.30;71.30
65034;DHT22;51601;51.356;12.458;2023-12-29T11:40:26;12.40;71.00
65034;DHT22;51601;51.356;12.458;2023-12-29T11:44:48;12.40;70.70
65034;DHT22;51601;51.356;12.458;2023-12-29T11:49:11;12.40;70.40
65034;DHT22;51601;51.356;12.458;2023-12-29T11:53:32;12.30;70.40
65034;DHT22;51601;51.356;12.458;2023-12-29T11:57:51;12.30;70.50
65034;DHT22;51601;51.356;12.458;2023-12-29T12:02:26;12.20;70.70
65034;DHT22;51601;51.356;12.458;2023-12-29T12:06:47;12.10;70.90
65034;DHT22;51601;51.356;12.458;2023-12-29T12:11:41;12.00;71.40
65034;DHT22;51601;51.356;12.458;2023-12-29T12:16:02;11.90;71.90
65034;DHT22;51601;51.356;12.458;2023-12-29T12:20:20;11.90;72.70
65034;DHT22;51601;51.356;12.458;2023-12-29T12:24:39;11.80;73.20
65034;DHT22;51601;51.356;12.458;2023-12-29T12:28:59;11.70;73.50
65034;DHT22;51601;51.356;12.458;2023-12-29T12:33:17;11.70;73.90
65034;DHT22;51601;51.356;12.458;2023-12-29T12:37:35;11.70;74.00
65034;DHT22;51601;51.356;12.458;2023-12-29T12:41:55;11.60;74.10
65034;DHT22;51601;51.356;12.458;2023-12-29T12:46:14;11.60;74.20
65034;DHT22;51601;51.356;12.458;2023-12-29T12:50:32;11.60;74.20
65034;DHT22;51601;51.356;12.458;2023-12-29T12:54:53;11.60;74.10
65034;DHT22;51601;51.356;12.458;2023-12-29T12:59:13;11.60;74.20
65034;DHT22;51601;51.356;12.458;2023-12-29T13:03:37;11.60;74.20
65034;DHT22;51601;51.356;12.458;2023-12-29T13:07:57;11.60;74.10
65034;DHT22;51601;51.356;12.458;2023-12-29T13:12:15;11.60;74.10
65034;DHT22;51601;51.356;12.458;2023-12-29T13:16:36;11.70;74.10
65034;DHT22;51601;51.356;12.458;2023-12-29T13:20:57;11.70;74.80
65034;DHT22;51601;51.356;12.458;2023-12-29T13:25:19;11.70;73.90
65034;DHT22;51601;51.356;12.458;2023-12-29T13:29:39;11.70;73.70
65034;DHT22;51601;51.356;12.458;2023-12-29T13:34:11;11.70;73.80
65034;DHT22;51601;51.356;12.458;2023-12-29T13:38:37;11.70;73.90
65034;DHT22;51601;51.356;12.458;2023-12-29T13:43:02;11.70;73.90
65034;DHT22;51601;51.356;12.458;2023-12-29T13:47:23;11.70;74.00
65034;DHT22;51601;51.356;12.458;2023-12-29T13:51:42;11.70;74.10
65034;DHT22;51601;51.356;12.458;2023-12-29T13:56:08;11.70;74.30
65034;DHT22;51601;51.356;12.458;2023-12-29T14:00:27;11.70;74.30
65034;DHT22;51601;51.356;12.458;2023-12-29T14:04:47;11.70;74.20
65034;DHT22;51601;51.356;12.458;2023-12-29T14:09:13;11.70;74.30
65034;DHT22;51601;51.356;12.458;2023-12-29T14:13:32;11.70;74.30
65034;DHT22;51601;51.356;12.458;2023-12-29T14:17:52;11.70;74.30
65034;DHT22;51601;51.356;12.458;2023-12-29T14:22:22;11.70;74.40
65034;DHT22;51601;51.356;12.458;2023-12-29T14:26:55;11.70;74.30
65034;DHT22;51601;51.356;12.458;2023-12-29T14:31:15;11.70;74.30
65034;DHT22;51601;51.356;12.458;2023-12-29T14:35:36;11.70;74.40
65034;DHT22;51601;51.356;12.458;2023-12-29T14:39:57;11.70;74.50
65034;DHT22;51601;51.356;12.458;2023-12-29T14:49:36;11.60;74.50
65034;DHT22;51601;51.356;12.458;2023-12-29T14:53:56;11.60;74.70
65034;DHT22;51601;51.356;12.458;2023-12-29T14:58:14;11.60;74.90
65034;DHT22;51601;51.356;12.458;2023-12-29T15:02:32;11.50;75.10
65034;DHT22;51601;51.356;12.458;2023-12-29T15:07:01;11.50;75.40
65034;DHT22;51601;51.356;12.458;2023-12-29T15:11:21;11.40;75.60
65034;DHT22;51601;51.356;12.458;2023-12-29T15:15:42;11.40;75.70
65034;DHT22;51601;51.356;12.458;2023-12-29T15:20:00;11.50;75.80
65034;DHT22;51601;51.356;12.458;2023-12-29T15:24:19;11.40;75.80
65034;DHT22;51601;51.356;12.458;2023-12-29T15:28:39;11.30;75.80
65034;DHT22;51601;51.356;12.458;2023-12-29T15:32:57;11.20;76.00
65034;DHT22;51601;51.356;12.458;2023-12-29T15:37:18;11.10;76.40
65034;DHT22;51601;51.356;12.458;2023-12-29T15:41:40;11.10;77.00
65034;DHT22;51601;51.356;12.458;2023-12-29T15:46:01;11.00;77.50
65034;DHT22;51601;51.356;12.458;2023-12-29T15:50:22;11.00;77.80
65034;DHT22;51601;51.356;12.458;2023-12-29T15:54:40;11.00;78.10
65034;DHT22;51601;51.356;12.458;2023-12-29T15:58:59;11.00;78.30
65034;DHT22;51601;51.356;12.458;2023-12-29T16:03:19;11.10;78.40
65034;DHT22;51601;51.356;12.458;2023-12-29T16:07:40;11.10;78.40
65034;DHT22;51601;51.356;12.458;2023-12-29T16:11:58;11.10;78.30
65034;DHT22;51601;51.356;12.458;2023-12-29T16:16:17;11.10;78.20
65034;DHT22;51601;51.356;12.458;2023-12-29T16:20:37;11.20;78.30
65034;DHT22;51601;51.356;12.458;2023-12-29T16:24:56;11.10;78.40
65034;DHT22;51601;51.356;12.458;2023-12-29T16:29:13;11.10;78.40
65034;DHT22;51601;51.356;12.458;2023-12-29T16:33:33;11.20;78.50
65034;DHT22;51601;51.356;12.458;2023-12-29T16:37:55;11.20;78.40
65034;DHT22;51601;51.356;12.458;2023-12-29T16:42:14;11.20;78.50
65034;DHT22;51601;51.356;12.458;2023-12-29T16:46:34;11.20;78.40
65034;DHT22;51601;51.356;12.458;2023-12-29T16:50:59;11.20;78.30
65034;DHT22;51601;51.356;12.458;2023-12-29T16:55:17;11.20;78.20
65034;DHT22;51601;51.356;12.458;2023-12-29T16:59:37;11.20;78.10
65034;DHT22;51601;51.356;12.458;2023-12-29T17:04:02;11.20;78.00
65034;DHT22;51601;51.356;12.458;2023-12-29T17:08:22;11.20;77.80
65034;DHT22;51601;51.356;12.458;2023-12-29T17:12:41;11.20;77.80
65034;DHT22;51601;51.356;12.458;2023-12-29T17:17:01;11.20;77.90
65034;DHT22;51601;51.356;12.458;2023-12-29T17:21:20;11.20;77.90
65034;DHT22;51601;51.356;12.458;2023-12-29T17:25:43;11.20;78.20
65034;DHT22;51601;51.356;12.458;2023-12-29T17:30:15;11.10;78.10
65034;DHT22;51601;51.356;12.458;2023-12-29T17:34:40;11.20;78.10
65034;DHT22;51601;51.356;12.458;2023-12-29T17:39:01;11.10;78.00
65034;DHT22;51601;51.356;12.458;2023-12-29T17:43:31;11.10;78.00
65034;DHT22;51601;51.356;12.458;2023-12-29T17:47:55;11.10;78.10
65034;DHT22;51601;51.356;12.458;2023-12-29T17:52:25;11.10;78.10
65034;DHT22;51601;51.356;12.458;2023-12-29T17:57:01;11.10;78.00
65034;DHT22;51601;51.356;12.458;2023-12-29T18:01:36;11.10;78.00
65034;DHT22;51601;51.356;12.458;2023-12-29T18:06:03;11.20;77.90
65034;DHT22;51601;51.356;12.458;2023-12-29T18:10:30;11.20;77.90
65034;DHT22;51601;51.356;12.458;2023-12-29T18:14:51;11.20;77.80
65034;DHT22;51601;51.356;12.458;2023-12-29T18:19:14;11.20;77.70
65034;DHT22;51601;51.356;12.458;2023-12-29T18:23:40;11.20;77.80
65034;DHT22;51601;51.356;12.458;2023-12-29T18:28:00;11.20;77.50
65034;DHT22;51601;51.356;12.458;2023-12-29T18:32:22;11.20;77.40
65034;DHT22;51601;51.356;12.458;2023-12-29T18:36:44;11.20;77.30
65034;DHT22;51601;51.356;12.458;2023-12-29T18:41:08;11.20;77.20
65034;DHT22;51601;51.356;12.458;2023-12-29T18:45:28;11.20;77.10
65034;DHT22;51601;51.356;12.458;2023-12-29T18:49:49;11.20;77.10
65034;DHT22;51601;51.356;12.458;2023-12-29T18:54:19;11.20;77.00
65034;DHT22;51601;51.356;12.458;2023-12-29T18:58:38;11.20;77.30
65034;DHT22;51601;51.356;12.458;2023-12-29T19:02:59;11.20;77.00
65034;DHT22;51601;51.356;12.458;2023-12-29T19:07:21;11.20;77.00
65034;DHT22;51601;51.356;12.458;2023-12-29T19:11:47;11.20;77.20
65034;DHT22;51601;51.356;12.458;2023-12-29T19:16:06;11.20;78.20
65034;DHT22;51601;51.356;12.458;2023-12-29T19:20:26;11.10;78.70
65034;DHT22;51601;51.356;12.458;2023-12-29T19:24:50;11.10;79.20
65034;DHT22;51601;51.356;12.458;2023-12-29T19:29:16;11.10;79.50
65034;DHT22;51601;51.356;12.458;2023-12-29T19:33:36;11.00;79.60
65034;DHT22;51601;51.356;12.458;2023-12-29T19:37:57;11.00;79.60
65034;DHT22;51601;51.356;12.458;2023-12-29T19:42:25;11.00;79.50
65034;DHT22;51601;51.356;12.458;2023-12-29T19:46:52;11.00;79.40
65034;DHT22;51601;51.356;12.458;2023-12-29T19:51:12;11.10;79.30
65034;DHT22;51601;51.356;12.458;2023-12-29T19:55:32;11.10;79.20
65034;DHT22;51601;51.356;12.458;2023-12-29T19:59:55;11.10;79.00
65034;DHT22;51601;51.356;12.458;2023-12-29T20:04:27;11.10;78.80
65034;DHT22;51601;51.356;12.458;2023-12-29T20:09:02;11.10;78.60
65034;DHT22;51601;51.356;12.458;2023-12-29T20:13:23;11.10;78.40
65034;DHT22;51601;51.356;12.458;2023-12-29T20:17:41;11.10;78.30
65034;DHT22;51601;51.356;12.458;2023-12-29T20:22:07;11.20;78.20
65034;DHT22;51601;51.356;12.458;2023-12-29T20:26:57;11.20;78.00
65034;DHT22;51601;51.356;12.458;2023-12-29T20:31:23;11.20;78.00
65034;DHT22;51601;51.356;12.458;2023-12-29T20:55:38;11.20;77.40
65034;DHT22;51601;51.356;12.458;2023-12-29T21:29:10;11.10;77.50
65034;DHT22;51601;51.356;12.458;2023-12-29T21:33:30;11.10;77.80
65034;DHT22;51601;51.356;12.458;2023-12-29T21:37:48;11.10;77.80
65034;DHT22;51601;51.356;12.458;2023-12-29T21:42:10;11.10;77.80
65034;DHT22;51601;51.356;12.458;2023-12-29T21:46:29;11.10;77.70
65034;DHT22;51601;51.356;12.458;2023-12-29T21:50:49;11.10;77.60
65034;DHT22;51601;51.356;12.458;2023-12-29T21:55:07;11.20;77.60
65034;DHT22;51601;51.356;12.458;2023-12-29T21:59:25;11.20;77.50
65034;DHT22;51601;51.356;12.458;2023-12-29T22:03:47;11.20;77.40
65034;DHT22;51601;51.356;12.458;2023-12-29T22:08:09;11.20;77.30
65034;DHT22;51601;51.356;12.458;2023-12-29T22:12:34;11.20;77.30
65034;DHT22;51601;51.356;12.458;2023-12-29T22:16:56;11.20;77.30
65034;DHT22;51601;51.356;12.458;2023-12-29T22:21:16;11.20;77.20
65034;DHT22;51601;51.356;12.458;2023-12-29T22:25:41;11.20;76.90
65034;DHT22;51601;51.356;12.458;2023-12-29T22:29:59;11.30;76.80
65034;DHT22;51601;51.356;12.458;2023-12-29T22:34:17;11.30;76.70
65034;DHT22;51601;51.356;12.458;2023-12-29T22:38:36;11.20;76.50
65034;DHT22;51601;51.356;12.458;2023-12-29T22:42:56;11.20;76.40
65034;DHT22;51601;51.356;12.458;2023-12-29T22:47:14;11.10;76.50
65034;DHT22;51601;51.356;12.458;2023-12-29T22:51:32;11.10;76.90
65034;DHT22;51601;51.356;12.458;2023-12-29T22:55:52;11.10;77.30
65034;DHT22;51601;51.356;12.458;2023-12-29T23:00:13;11.10;77.70
65034;DHT22;51601;51.356;12.458;2023-12-29T23:04:39;11.10;78.20
65034;DHT22;51601;51.356;12.458;2023-12-29T23:08:58;11.10;78.20
65034;DHT22;51601;51.356;12.458;2023-12-29T23:13:21;11.10;78.40
65034;DHT22;51601;51.356;12.458;2023-12-29T23:17:42;11.10;78.70
65034;DHT22;51601;51.356;12.458;2023-12-29T23:22:00;11.00;79.00
65034;DHT22;51601;51.356;12.458;2023-12-29T23:26:21;11.00;79.50
65034;DHT22;51601;51.356;12.458;2023-12-29T23:30:50;11.00;79.90
65034;DHT22;51601;51.356;12.458;2023-12-29T23:35:13;11.00;80.10
65034;DHT22;51601;51.356;12.458;2023-12-29T23:39:43;11.00;80.10
65034;DHT22;51601;51.356;12.458;2023-12-29T23:44:10;11.00;80.50
65034;DHT22;51601;51.356;12.458;2023-12-29T23:48:30;11.00;80.90
65034;DHT22;51601;51.356;12.458;2023-12-29T23:52:49;11.00;81.10
65034;DHT22;51601;51.356;12.458;2023-12-29T23:57:11;11.00;81.20
